createdAt,value
2018-12-20T00:00:17.595Z,1013.12
2018-12-20T00:01:17.575Z,1013.17
2018-12-20T00:02:17.642Z,1013.15
2018-12-20T00:03:17.508Z,1013.14
2018-12-20T00:04:17.469Z,1013.17
2018-12-20T00:05:17.619Z,1013.18
2018-12-20T00:06:17.404Z,1013.18
2018-12-20T00:07:17.530Z,1013.15
2018-12-20T00:08:17.321Z,1013.13
2018-12-20T00:09:17.309Z,1013.14
2018-12-20T00:10:17.312Z,1013.15
2018-12-20T00:11:17.269Z,1013.15
2018-12-20T00:12:17.210Z,1013.11
2018-12-20T00:13:17.147Z,1013.11
2018-12-20T00:14:17.213Z,1013.11
2018-12-20T00:15:17.078Z,1013.12
2018-12-20T00:16:17.044Z,1013.13
2018-12-20T00:17:17.131Z,1013.10
2018-12-20T00:18:16.993Z,1013.09
2018-12-20T00:19:17.142Z,1013.10
2018-12-20T00:20:16.928Z,1013.11
2018-12-20T00:21:16.920Z,1013.08
2018-12-20T00:22:16.918Z,1013.18
2018-12-20T00:23:16.803Z,1013.12
2018-12-20T00:24:16.783Z,1013.09
2018-12-20T00:25:16.883Z,1013.11
2018-12-20T00:26:16.706Z,1013.11
2018-12-20T00:27:16.667Z,1013.09
2018-12-20T00:28:16.634Z,1013.08
2018-12-20T00:29:16.644Z,1013.11
2018-12-20T00:30:16.565Z,1013.05
2018-12-20T00:31:16.530Z,1013.07
2018-12-20T00:32:16.517Z,1013.04
2018-12-20T00:33:16.496Z,1013.02
2018-12-20T00:34:16.444Z,1013.01
2018-12-20T00:35:16.415Z,1013.01
2018-12-20T00:36:16.388Z,1013.01
2018-12-20T00:37:16.404Z,1013.02
2018-12-20T00:38:16.371Z,1013.04
2018-12-20T00:39:16.258Z,1013.02
2018-12-20T00:40:16.223Z,1013.01
2018-12-20T00:41:16.189Z,1013.00
2018-12-20T00:42:16.175Z,1013.01
2018-12-20T00:43:16.126Z,1012.99
2018-12-20T00:44:16.162Z,1012.95
2018-12-20T00:45:16.179Z,1013.01
2018-12-20T00:46:16.159Z,1012.98
2018-12-20T00:47:16.012Z,1013.00
2018-12-20T00:48:16.058Z,1012.95
2018-12-20T00:49:15.940Z,1012.99
2018-12-20T00:50:16.070Z,1012.97
2018-12-20T00:51:15.865Z,1012.95
2018-12-20T00:52:15.814Z,1012.97
2018-12-20T00:53:15.788Z,1012.93
2018-12-20T00:54:15.929Z,1012.95
2018-12-20T00:55:15.712Z,1012.94
2018-12-20T00:56:15.678Z,1012.98
2018-12-20T00:57:15.756Z,1013.01
2018-12-20T00:58:15.610Z,1012.99
2018-12-20T00:59:15.577Z,1012.99
2018-12-20T01:00:15.712Z,1013.02
2018-12-20T01:01:15.511Z,1013.01
2018-12-20T01:02:15.619Z,1013.05
2018-12-20T01:03:15.471Z,1013.03
2018-12-20T01:04:15.408Z,1013.05
2018-12-20T01:05:15.410Z,1013.06
2018-12-20T01:06:15.340Z,1013.08
2018-12-20T01:07:15.304Z,1013.10
2018-12-20T01:08:15.339Z,1013.12
2018-12-20T01:09:15.266Z,1013.12
2018-12-20T01:10:15.203Z,1013.15
2018-12-20T01:11:15.168Z,1013.15
2018-12-20T01:12:15.190Z,1013.14
2018-12-20T01:13:15.102Z,1013.19
2018-12-20T01:14:15.302Z,1013.13
2018-12-20T01:15:15.040Z,1013.14
2018-12-20T01:16:15.000Z,1013.11
2018-12-20T01:17:14.964Z,1013.19
2018-12-20T01:18:15.094Z,1013.15
2018-12-20T01:19:14.990Z,1013.16
2018-12-20T01:20:14.979Z,1013.15
2018-12-20T01:21:14.830Z,1013.15
2018-12-20T01:22:14.803Z,1013.14
2018-12-20T01:23:14.760Z,1013.15
2018-12-20T01:24:14.843Z,1013.15
2018-12-20T01:25:14.691Z,1013.22
2018-12-20T01:26:14.744Z,1013.23
2018-12-20T01:27:14.741Z,1013.26
2018-12-20T01:28:14.589Z,1013.28
2018-12-20T01:29:14.686Z,1013.31
2018-12-20T01:30:14.626Z,1013.30
2018-12-20T01:31:14.626Z,1013.34
2018-12-20T01:32:14.454Z,1013.32
2018-12-20T01:33:14.419Z,1013.29
2018-12-20T01:34:14.509Z,1013.31
2018-12-20T01:35:14.455Z,1013.29
2018-12-20T01:36:14.361Z,1013.27
2018-12-20T01:37:14.418Z,1013.27
2018-12-20T01:38:14.277Z,1013.28
2018-12-20T01:39:14.327Z,1013.29
2018-12-20T01:40:14.292Z,1013.31
2018-12-20T01:41:14.297Z,1013.32
2018-12-20T01:42:14.219Z,1013.34
2018-12-20T01:43:14.095Z,1013.33
2018-12-20T01:44:14.045Z,1013.37
2018-12-20T01:45:14.024Z,1013.35
2018-12-20T01:46:14.217Z,1013.35
2018-12-20T01:47:13.981Z,1013.29
2018-12-20T01:48:14.082Z,1013.30
2018-12-20T01:49:13.874Z,1013.27
2018-12-20T01:50:13.862Z,1013.28
2018-12-20T01:51:13.894Z,1013.31
2018-12-20T01:52:13.774Z,1013.32
2018-12-20T01:53:13.880Z,1013.28
2018-12-20T01:54:13.705Z,1013.32
2018-12-20T01:55:13.670Z,1013.29
2018-12-20T01:56:13.813Z,1013.30
2018-12-20T01:57:13.788Z,1013.27
2018-12-20T01:58:13.567Z,1013.31
2018-12-20T01:59:13.646Z,1013.34
2018-12-20T02:00:13.498Z,1013.31
2018-12-20T02:01:13.490Z,1013.33
2018-12-20T02:02:13.569Z,1013.30
2018-12-20T02:03:13.396Z,1013.36
2018-12-20T02:04:13.469Z,1013.35
2018-12-20T02:05:13.415Z,1013.35
2018-12-20T02:06:13.294Z,1013.32
2018-12-20T02:07:13.309Z,1013.32
2018-12-20T02:08:13.250Z,1013.31
2018-12-20T02:09:13.191Z,1013.30
2018-12-20T02:10:13.324Z,1013.29
2018-12-20T02:11:13.143Z,1013.28
2018-12-20T02:12:13.089Z,1013.29
2018-12-20T02:13:13.177Z,1013.27
2018-12-20T02:14:13.058Z,1013.23
2018-12-20T02:15:13.132Z,1013.15
2018-12-20T02:16:12.994Z,1013.18
2018-12-20T02:17:13.038Z,1013.19
2018-12-20T02:18:13.019Z,1013.19
2018-12-20T02:19:12.851Z,1013.16
2018-12-20T02:20:12.954Z,1013.14
2018-12-20T02:21:12.933Z,1013.13
2018-12-20T02:22:12.787Z,1013.08
2018-12-20T02:23:12.921Z,1013.07
2018-12-20T02:24:12.802Z,1013.06
2018-12-20T02:25:12.646Z,1013.03
2018-12-20T02:26:12.665Z,1013.05
2018-12-20T02:27:12.753Z,1013.10
2018-12-20T02:28:12.543Z,1013.03
2018-12-20T02:29:12.676Z,1013.07
2018-12-20T02:30:12.484Z,1013.01
2018-12-20T02:31:12.554Z,1012.97
2018-12-20T02:32:12.577Z,1013.00
2018-12-20T02:33:12.373Z,1013.03
2018-12-20T02:34:12.519Z,1013.05
2018-12-20T02:35:12.303Z,1013.01
2018-12-20T02:36:12.344Z,1013.01
2018-12-20T02:37:12.236Z,1013.03
2018-12-20T02:38:12.226Z,1012.98
2018-12-20T02:39:12.411Z,1012.92
2018-12-20T02:40:12.242Z,1012.88
2018-12-20T02:41:12.121Z,1012.88
2018-12-20T02:42:12.121Z,1012.86
2018-12-20T02:43:12.032Z,1012.89
2018-12-20T02:44:12.142Z,1012.88
2018-12-20T02:45:11.963Z,1012.89
2018-12-20T02:46:11.931Z,1012.96
2018-12-20T02:47:11.965Z,1012.93
2018-12-20T02:48:11.863Z,1012.90
2018-12-20T02:49:12.116Z,1012.95
2018-12-20T02:50:11.839Z,1013.00
2018-12-20T02:51:11.917Z,1012.97
2018-12-20T02:52:11.748Z,1012.95
2018-12-20T02:53:11.776Z,1012.97
2018-12-20T02:54:11.700Z,1012.92
2018-12-20T02:55:11.800Z,1012.95
2018-12-20T02:56:11.590Z,1012.91
2018-12-20T02:57:11.556Z,1012.90
2018-12-20T02:58:11.531Z,1012.91
2018-12-20T02:59:11.487Z,1012.92
2018-12-20T03:00:11.530Z,1012.95
2018-12-20T03:01:11.418Z,1012.92
2018-12-20T03:02:11.387Z,1012.92
2018-12-20T03:03:11.352Z,1012.94
2018-12-20T03:04:11.316Z,1012.92
2018-12-20T03:05:11.532Z,1012.90
2018-12-20T03:06:11.557Z,1012.89
2018-12-20T03:07:11.215Z,1012.89
2018-12-20T03:08:11.204Z,1012.87
2018-12-20T03:09:11.270Z,1012.84
2018-12-20T03:10:11.443Z,1012.82
2018-12-20T03:11:11.101Z,1012.83
2018-12-20T03:12:11.098Z,1012.86
2018-12-20T03:13:11.063Z,1012.86
2018-12-20T03:14:11.062Z,1012.88
2018-12-20T03:15:19.720Z,1012.83
2018-12-20T03:16:10.943Z,1012.80
2018-12-20T03:17:11.046Z,1012.83
2018-12-20T03:18:10.843Z,1012.84
2018-12-20T03:19:10.839Z,1012.79
2018-12-20T03:20:10.965Z,1012.81
2018-12-20T03:21:10.917Z,1012.82
2018-12-20T03:22:10.703Z,1012.80
2018-12-20T03:23:10.669Z,1012.84
2018-12-20T03:24:10.753Z,1012.83
2018-12-20T03:25:10.790Z,1012.84
2018-12-20T03:26:10.774Z,1012.76
2018-12-20T03:27:10.550Z,1012.78
2018-12-20T03:28:10.702Z,1012.79
2018-12-20T03:29:10.500Z,1012.84
2018-12-20T03:30:10.432Z,1012.78
2018-12-20T03:31:10.552Z,1012.80
2018-12-20T03:32:10.560Z,1012.77
2018-12-20T03:33:10.753Z,1012.74
2018-12-20T03:34:10.495Z,1012.71
2018-12-20T03:35:10.372Z,1012.69
2018-12-20T03:36:10.264Z,1012.68
2018-12-20T03:37:10.195Z,1012.72
2018-12-20T03:38:10.184Z,1012.70
2018-12-20T03:39:10.321Z,1012.68
2018-12-20T03:40:10.109Z,1012.68
2018-12-20T03:41:10.205Z,1012.67
2018-12-20T03:42:10.309Z,1012.68
2018-12-20T03:43:10.091Z,1012.68
2018-12-20T03:44:09.952Z,1012.68
2018-12-20T03:45:09.941Z,1012.69
2018-12-20T03:46:09.888Z,1012.73
2018-12-20T03:47:09.850Z,1012.74
2018-12-20T03:48:09.999Z,1012.75
2018-12-20T03:49:09.825Z,1012.78
2018-12-20T03:50:09.812Z,1012.77
2018-12-20T03:51:09.758Z,1012.80
2018-12-20T03:52:09.679Z,1012.84
2018-12-20T03:53:09.695Z,1012.83
2018-12-20T03:54:09.612Z,1012.83
2018-12-20T03:55:09.617Z,1012.83
2018-12-20T03:56:09.554Z,1012.83
2018-12-20T03:57:09.628Z,1012.83
2018-12-20T03:58:09.659Z,1012.82
2018-12-20T03:59:09.439Z,1012.79
2018-12-20T04:00:09.435Z,1012.77
2018-12-20T04:01:09.372Z,1012.77
2018-12-20T04:02:09.552Z,1012.71
2018-12-20T04:03:09.337Z,1012.71
2018-12-20T04:04:09.510Z,1012.73
2018-12-20T04:05:09.248Z,1012.76
2018-12-20T04:06:09.206Z,1012.74
2018-12-20T04:07:09.284Z,1012.70
2018-12-20T04:08:09.239Z,1012.72
2018-12-20T04:09:09.185Z,1012.74
2018-12-20T04:10:09.127Z,1012.71
2018-12-20T04:11:09.032Z,1012.70
2018-12-20T04:12:08.996Z,1012.65
2018-12-20T04:13:08.967Z,1012.66
2018-12-20T04:14:08.929Z,1012.63
2018-12-20T04:15:09.146Z,1012.64
2018-12-20T04:16:08.925Z,1012.64
2018-12-20T04:17:08.843Z,1012.68
2018-12-20T04:18:09.123Z,1012.70
2018-12-20T04:19:08.781Z,1012.65
2018-12-20T04:20:08.728Z,1012.68
2018-12-20T04:21:08.720Z,1012.61
2018-12-20T04:22:08.801Z,1012.59
2018-12-20T04:23:08.797Z,1012.62
2018-12-20T04:24:08.851Z,1012.59
2018-12-20T04:25:08.554Z,1012.59
2018-12-20T04:26:08.699Z,1012.60
2018-12-20T04:27:08.555Z,1012.56
2018-12-20T04:28:08.701Z,1012.60
2018-12-20T04:29:08.629Z,1012.66
2018-12-20T04:30:08.641Z,1012.55
2018-12-20T04:31:08.488Z,1012.64
2018-12-20T04:32:08.544Z,1012.64
2018-12-20T04:33:08.476Z,1012.71
2018-12-20T04:34:08.256Z,1012.70
2018-12-20T04:35:08.259Z,1012.75
2018-12-20T04:36:08.466Z,1012.75
2018-12-20T04:37:08.172Z,1012.73
2018-12-20T04:38:08.111Z,1012.72
2018-12-20T04:39:08.075Z,1012.73
2018-12-20T04:40:08.045Z,1012.73
2018-12-20T04:41:08.055Z,1012.67
2018-12-20T04:42:08.237Z,1012.65
2018-12-20T04:43:07.940Z,1012.67
2018-12-20T04:44:07.934Z,1012.64
2018-12-20T04:45:08.012Z,1012.55
2018-12-20T04:46:08.036Z,1012.60
2018-12-20T04:47:07.979Z,1012.62
2018-12-20T04:48:08.001Z,1012.62
2018-12-20T04:49:07.736Z,1012.65
2018-12-20T04:50:07.812Z,1012.64
2018-12-20T04:51:07.680Z,1012.64
2018-12-20T04:52:07.822Z,1012.70
2018-12-20T04:53:07.782Z,1012.66
2018-12-20T04:54:07.564Z,1012.70
2018-12-20T04:55:07.643Z,1012.66
2018-12-20T04:56:07.498Z,1012.70
2018-12-20T04:57:07.462Z,1012.71
2018-12-20T04:58:07.428Z,1012.70
2018-12-20T04:59:07.815Z,1012.72
2018-12-20T05:00:07.361Z,1012.73
2018-12-20T05:01:07.391Z,1012.68
2018-12-20T05:02:07.292Z,1012.70
2018-12-20T05:03:07.258Z,1012.67
2018-12-20T05:04:07.523Z,1012.67
2018-12-20T05:05:07.376Z,1012.67
2018-12-20T05:06:07.157Z,1012.65
2018-12-20T05:07:07.426Z,1012.64
2018-12-20T05:08:07.101Z,1012.63
2018-12-20T05:09:07.178Z,1012.60
2018-12-20T05:10:07.136Z,1012.57
2018-12-20T05:11:06.984Z,1012.58
2018-12-20T05:12:07.029Z,1012.58
2018-12-20T05:13:06.996Z,1012.58
2018-12-20T05:14:06.890Z,1012.58
2018-12-20T05:15:06.903Z,1012.55
2018-12-20T05:16:06.846Z,1012.55
2018-12-20T05:17:06.898Z,1012.56
2018-12-20T05:18:06.760Z,1012.52
2018-12-20T05:19:06.717Z,1012.51
2018-12-20T05:20:06.723Z,1012.50
2018-12-20T05:21:06.685Z,1012.54
2018-12-20T05:22:06.883Z,1012.53
2018-12-20T05:23:06.704Z,1012.54
2018-12-20T05:24:06.545Z,1012.49
2018-12-20T05:25:06.717Z,1012.51
2018-12-20T05:26:06.686Z,1012.58
2018-12-20T05:27:06.452Z,1012.56
2018-12-20T05:28:06.511Z,1012.55
2018-12-20T05:29:06.430Z,1012.53
2018-12-20T05:30:06.340Z,1012.55
2018-12-20T05:31:06.302Z,1012.52
2018-12-20T05:32:06.268Z,1012.49
2018-12-20T05:33:06.236Z,1012.47
2018-12-20T05:34:06.453Z,1012.46
2018-12-20T05:35:06.249Z,1012.47
2018-12-20T05:36:06.134Z,1012.42
2018-12-20T05:37:06.185Z,1012.44
2018-12-20T05:38:06.069Z,1012.41
2018-12-20T05:39:06.195Z,1012.41
2018-12-20T05:40:05.997Z,1012.39
2018-12-20T05:41:06.243Z,1012.39
2018-12-20T05:42:06.043Z,1012.37
2018-12-20T05:43:05.894Z,1012.32
2018-12-20T05:44:06.078Z,1012.37
2018-12-20T05:45:05.902Z,1012.34
2018-12-20T05:46:05.791Z,1012.39
2018-12-20T05:47:05.781Z,1012.37
2018-12-20T05:48:05.723Z,1012.35
2018-12-20T05:49:05.688Z,1012.37
2018-12-20T05:50:05.743Z,1012.36
2018-12-20T05:51:05.625Z,1012.40
2018-12-20T05:52:05.625Z,1012.42
2018-12-20T05:53:05.554Z,1012.41
2018-12-20T05:54:05.671Z,1012.41
2018-12-20T05:55:05.635Z,1012.40
2018-12-20T05:56:05.448Z,1012.43
2018-12-20T05:57:05.472Z,1012.42
2018-12-20T05:58:05.584Z,1012.42
2018-12-20T05:59:05.463Z,1012.41
2018-12-20T06:00:05.401Z,1012.40
2018-12-20T06:01:05.277Z,1012.42
2018-12-20T06:02:05.272Z,1012.40
2018-12-20T06:03:05.232Z,1012.42
2018-12-20T06:04:05.177Z,1012.44
2018-12-20T06:05:05.139Z,1012.46
2018-12-20T06:06:05.256Z,1012.39
2018-12-20T06:07:05.164Z,1012.42
2018-12-20T06:08:05.316Z,1012.42
2018-12-20T06:09:05.081Z,1012.43
2018-12-20T06:10:04.993Z,1012.40
2018-12-20T06:11:05.026Z,1012.42
2018-12-20T06:12:05.104Z,1012.42
2018-12-20T06:13:04.913Z,1012.40
2018-12-20T06:14:05.005Z,1012.39
2018-12-20T06:15:04.795Z,1012.40
2018-12-20T06:16:12.453Z,1012.39
2018-12-20T06:17:04.726Z,1012.39
2018-12-20T06:18:04.738Z,1012.39
2018-12-20T06:19:04.674Z,1012.37
2018-12-20T06:20:04.703Z,1012.37
2018-12-20T06:21:04.637Z,1012.36
2018-12-20T06:22:04.610Z,1012.37
2018-12-20T06:23:04.523Z,1012.40
2018-12-20T06:24:04.486Z,1012.38
2018-12-20T06:25:04.459Z,1012.42
2018-12-20T06:26:04.417Z,1012.44
2018-12-20T06:27:04.383Z,1012.44
2018-12-20T06:28:04.350Z,1012.47
2018-12-20T06:29:04.316Z,1012.43
2018-12-20T06:30:04.282Z,1012.44
2018-12-20T06:31:04.247Z,1012.45
2018-12-20T06:32:04.211Z,1012.47
2018-12-20T06:33:04.182Z,1012.42
2018-12-20T06:34:04.143Z,1012.42
2018-12-20T06:35:04.111Z,1012.42
2018-12-20T06:36:04.075Z,1012.34
2018-12-20T06:37:04.042Z,1012.34
2018-12-20T06:38:04.007Z,1012.35
2018-12-20T06:39:03.973Z,1012.41
2018-12-20T06:40:03.941Z,1012.35
2018-12-20T06:41:03.905Z,1012.40
2018-12-20T06:42:03.871Z,1012.42
2018-12-20T06:43:03.837Z,1012.37
2018-12-20T06:44:07.295Z,1012.39
2018-12-20T06:45:03.767Z,1012.41
2018-12-20T06:46:03.734Z,1012.41
2018-12-20T06:47:03.698Z,1012.44
2018-12-20T06:48:03.664Z,1012.42
2018-12-20T06:49:03.630Z,1012.41
2018-12-20T06:50:03.600Z,1012.41
2018-12-20T06:51:03.561Z,1012.40
2018-12-20T06:52:03.527Z,1012.39
2018-12-20T06:53:03.492Z,1012.42
2018-12-20T06:54:03.459Z,1012.39
2018-12-20T06:55:03.424Z,1012.39
2018-12-20T06:56:03.391Z,1012.33
2018-12-20T06:57:03.357Z,1012.36
2018-12-20T06:58:03.322Z,1012.35
2018-12-20T06:59:03.292Z,1012.37
2018-12-20T07:00:03.254Z,1012.35
2018-12-20T07:01:03.219Z,1012.36
2018-12-20T07:02:03.218Z,1012.33
2018-12-20T07:03:03.152Z,1012.32
2018-12-20T07:04:03.120Z,1012.36
2018-12-20T07:05:03.084Z,1012.36
2018-12-20T07:06:03.050Z,1012.38
2018-12-20T07:07:03.014Z,1012.32
2018-12-20T07:08:02.981Z,1012.40
2018-12-20T07:09:02.944Z,1012.38
2018-12-20T07:10:02.914Z,1012.43
2018-12-20T07:11:02.876Z,1012.41
2018-12-20T07:12:02.843Z,1012.38
2018-12-20T07:13:02.811Z,1012.38
2018-12-20T07:14:02.775Z,1012.37
2018-12-20T07:15:02.745Z,1012.41
2018-12-20T07:16:02.707Z,1012.36
2018-12-20T07:17:02.685Z,1012.31
2018-12-20T07:18:02.638Z,1012.33
2018-12-20T07:19:02.605Z,1012.41
2018-12-20T07:20:02.570Z,1012.41
2018-12-20T07:21:02.539Z,1012.44
2018-12-20T07:22:02.503Z,1012.47
2018-12-20T07:23:02.467Z,1012.46
2018-12-20T07:24:02.434Z,1012.46
2018-12-20T07:25:02.399Z,1012.48
2018-12-20T07:26:02.365Z,1012.48
2018-12-20T07:27:02.332Z,1012.52
2018-12-20T07:28:02.297Z,1012.52
2018-12-20T07:29:02.263Z,1012.54
2018-12-20T07:30:02.230Z,1012.53
2018-12-20T07:31:02.193Z,1012.55
2018-12-20T07:32:02.159Z,1012.56
2018-12-20T07:33:02.126Z,1012.57
2018-12-20T07:34:02.093Z,1012.58
2018-12-20T07:35:02.056Z,1012.60
2018-12-20T07:36:02.022Z,1012.60
2018-12-20T07:37:01.988Z,1012.60
2018-12-20T07:38:01.955Z,1012.59
2018-12-20T07:39:01.921Z,1012.57
2018-12-20T07:40:01.889Z,1012.60
2018-12-20T07:41:01.853Z,1012.56
2018-12-20T07:42:01.819Z,1012.59
2018-12-20T07:43:01.784Z,1012.54
2018-12-20T07:44:01.751Z,1012.56
2018-12-20T07:45:01.715Z,1012.62
2018-12-20T07:46:01.683Z,1012.61
2018-12-20T07:47:01.648Z,1012.63
2018-12-20T07:48:01.612Z,1012.63
2018-12-20T07:49:01.586Z,1012.61
2018-12-20T07:50:01.545Z,1012.64
2018-12-20T07:51:03.556Z,1012.67
2018-12-20T07:52:01.477Z,1012.62
2018-12-20T07:53:01.441Z,1012.64
2018-12-20T07:54:01.410Z,1012.63
2018-12-20T07:55:01.374Z,1012.63
2018-12-20T07:56:01.339Z,1012.60
2018-12-20T07:57:01.305Z,1012.63
2018-12-20T07:58:01.271Z,1012.66
2018-12-20T07:59:01.239Z,1012.64
2018-12-20T08:00:01.207Z,1012.66
2018-12-20T08:01:01.168Z,1012.65
2018-12-20T08:02:01.135Z,1012.66
2018-12-20T08:03:01.101Z,1012.62
2018-12-20T08:04:03.183Z,1012.67
2018-12-20T08:05:01.033Z,1012.66
2018-12-20T08:06:00.999Z,1012.67
2018-12-20T08:07:00.963Z,1012.66
2018-12-20T08:08:00.929Z,1012.64
2018-12-20T08:09:00.895Z,1012.63
2018-12-20T08:10:00.863Z,1012.65
2018-12-20T08:11:00.827Z,1012.68
2018-12-20T08:12:00.793Z,1012.64
2018-12-20T08:13:00.759Z,1012.68
2018-12-20T08:14:00.727Z,1012.65
2018-12-20T08:15:00.691Z,1012.64
2018-12-20T08:16:00.657Z,1012.66
2018-12-20T08:17:00.622Z,1012.67
2018-12-20T08:18:00.590Z,1012.74
2018-12-20T08:19:00.556Z,1012.75
2018-12-20T08:20:00.521Z,1012.71
2018-12-20T08:21:00.489Z,1012.70
2018-12-20T08:22:02.291Z,1012.70
2018-12-20T08:23:00.418Z,1012.74
2018-12-20T08:24:00.390Z,1012.74
2018-12-20T08:25:00.353Z,1012.75
2018-12-20T08:26:00.319Z,1012.79
2018-12-20T08:27:00.284Z,1012.83
2018-12-20T08:28:00.355Z,1012.79
2018-12-20T08:29:00.217Z,1012.78
2018-12-20T08:30:00.185Z,1012.81
2018-12-20T08:31:00.149Z,1012.77
2018-12-20T08:32:00.115Z,1012.80
2018-12-20T08:33:00.082Z,1012.78
2018-12-20T08:34:00.048Z,1012.83
2018-12-20T08:35:00.012Z,1012.86
2018-12-20T08:35:59.981Z,1012.88
2018-12-20T08:36:59.947Z,1012.89
2018-12-20T08:37:59.913Z,1012.90
2018-12-20T08:38:59.877Z,1012.89
2018-12-20T08:39:59.848Z,1012.90
2018-12-20T08:40:59.811Z,1012.88
2018-12-20T08:41:59.779Z,1012.85
2018-12-20T08:42:59.744Z,1012.88
2018-12-20T08:43:59.710Z,1012.89
2018-12-20T08:44:59.676Z,1012.90
2018-12-20T08:45:59.646Z,1012.85
2018-12-20T08:46:59.609Z,1012.85
2018-12-20T08:47:59.575Z,1012.89
2018-12-20T08:48:59.541Z,1012.90
2018-12-20T08:49:59.508Z,1012.88
2018-12-20T08:50:59.473Z,1012.87
2018-12-20T08:51:59.441Z,1012.89
2018-12-20T08:52:59.409Z,1012.91
2018-12-20T08:53:59.374Z,1012.91
2018-12-20T08:54:59.340Z,1012.95
2018-12-20T08:55:59.307Z,1012.95
2018-12-20T08:56:59.275Z,1012.94
2018-12-20T08:57:59.238Z,1012.95
2018-12-20T08:58:59.205Z,1012.93
2018-12-20T08:59:59.173Z,1012.91
2018-12-20T09:00:59.138Z,1012.93
2018-12-20T09:01:59.110Z,1012.92
2018-12-20T09:02:59.069Z,1012.89
2018-12-20T09:03:59.037Z,1012.94
2018-12-20T09:04:59.007Z,1012.90
2018-12-20T09:05:58.972Z,1012.90
2018-12-20T09:06:58.936Z,1012.89
2018-12-20T09:07:58.903Z,1012.89
2018-12-20T09:08:58.869Z,1012.92
2018-12-20T09:09:58.837Z,1012.87
2018-12-20T09:10:58.801Z,1012.88
2018-12-20T09:11:58.768Z,1012.84
2018-12-20T09:12:58.735Z,1012.84
2018-12-20T09:13:58.702Z,1012.83
2018-12-20T09:14:58.667Z,1012.86
2018-12-20T09:15:58.638Z,1012.84
2018-12-20T09:17:02.890Z,1012.83
2018-12-20T09:17:58.566Z,1012.82
2018-12-20T09:18:58.535Z,1012.84
2018-12-20T09:19:58.498Z,1012.81
2018-12-20T09:20:58.466Z,1012.82
2018-12-20T09:21:58.434Z,1012.84
2018-12-20T09:22:58.397Z,1012.80
2018-12-20T09:23:58.365Z,1012.84
2018-12-20T09:24:58.330Z,1012.87
2018-12-20T09:25:58.297Z,1012.86
2018-12-20T09:26:58.263Z,1012.82
2018-12-20T09:27:58.229Z,1012.83
2018-12-20T09:28:58.196Z,1012.80
2018-12-20T09:29:58.163Z,1012.79
2018-12-20T09:30:58.129Z,1012.82
2018-12-20T09:31:58.098Z,1012.78
2018-12-20T09:32:58.063Z,1012.81
2018-12-20T09:33:58.029Z,1012.83
2018-12-20T09:34:57.994Z,1012.81
2018-12-20T09:35:57.961Z,1012.82
2018-12-20T09:36:57.929Z,1012.86
2018-12-20T09:37:57.894Z,1012.84
2018-12-20T09:38:57.864Z,1012.84
2018-12-20T09:39:57.829Z,1012.85
2018-12-20T09:40:57.795Z,1012.89
2018-12-20T09:41:57.763Z,1012.86
2018-12-20T09:42:57.727Z,1012.83
2018-12-20T09:43:57.693Z,1012.80
2018-12-20T09:44:57.663Z,1012.82
2018-12-20T09:45:57.629Z,1012.82
2018-12-20T09:46:57.593Z,1012.81
2018-12-20T09:47:57.563Z,1012.82
2018-12-20T09:48:57.529Z,1012.81
2018-12-20T09:49:57.495Z,1012.80
2018-12-20T09:50:57.461Z,1012.81
2018-12-20T09:51:57.427Z,1012.79
2018-12-20T09:52:57.393Z,1012.78
2018-12-20T09:53:57.360Z,1012.76
2018-12-20T09:54:57.329Z,1012.77
2018-12-20T09:55:57.295Z,1012.72
2018-12-20T09:56:57.261Z,1012.74
2018-12-20T09:57:57.228Z,1012.79
2018-12-20T09:58:57.193Z,1012.76
2018-12-20T09:59:57.166Z,1012.73
2018-12-20T10:00:57.127Z,1012.73
2018-12-20T10:01:57.098Z,1012.72
2018-12-20T10:02:57.069Z,1012.72
2018-12-20T10:03:57.028Z,1012.70
2018-12-20T10:04:56.995Z,1012.71
2018-12-20T10:05:56.962Z,1012.72
2018-12-20T10:06:56.928Z,1012.69
2018-12-20T10:07:56.895Z,1012.72
2018-12-20T10:08:56.865Z,1012.74
2018-12-20T10:09:56.830Z,1012.72
2018-12-20T10:10:56.794Z,1012.67
2018-12-20T10:11:56.762Z,1012.68
2018-12-20T10:12:56.729Z,1012.65
2018-12-20T10:13:56.696Z,1012.66
2018-12-20T10:14:56.661Z,1012.63
2018-12-20T10:15:56.629Z,1012.63
2018-12-20T10:16:56.596Z,1012.62
2018-12-20T10:17:56.566Z,1012.63
2018-12-20T10:18:56.533Z,1012.65
2018-12-20T10:19:56.497Z,1012.62
2018-12-20T10:20:56.463Z,1012.65
2018-12-20T10:21:56.431Z,1012.63
2018-12-20T10:22:56.400Z,1012.63
2018-12-20T10:23:56.367Z,1012.59
2018-12-20T10:24:56.331Z,1012.56
2018-12-20T10:25:56.301Z,1012.56
2018-12-20T10:26:56.268Z,1012.54
2018-12-20T10:27:56.234Z,1012.53
2018-12-20T10:28:56.203Z,1012.48
2018-12-20T10:29:56.169Z,1012.51
2018-12-20T10:30:56.137Z,1012.49
2018-12-20T10:31:56.105Z,1012.44
2018-12-20T10:32:56.072Z,1012.42
2018-12-20T10:33:56.039Z,1012.45
2018-12-20T10:34:56.006Z,1012.44
2018-12-20T10:35:55.977Z,1012.43
2018-12-20T10:36:55.944Z,1012.40
2018-12-20T10:37:55.911Z,1012.41
2018-12-20T10:38:55.879Z,1012.43
2018-12-20T10:39:55.847Z,1012.42
2018-12-20T10:40:55.815Z,1012.37
2018-12-20T10:41:55.782Z,1012.35
2018-12-20T10:42:55.750Z,1012.30
2018-12-20T10:43:55.718Z,1012.28
2018-12-20T10:44:55.686Z,1012.30
2018-12-20T10:45:55.653Z,1012.32
2018-12-20T10:46:55.622Z,1012.28
2018-12-20T10:47:55.590Z,1012.33
2018-12-20T10:48:55.560Z,1012.27
2018-12-20T10:49:55.526Z,1012.28
2018-12-20T10:50:55.492Z,1012.27
2018-12-20T10:51:55.460Z,1012.26
2018-12-20T10:52:55.434Z,1012.28
2018-12-20T10:53:55.397Z,1012.28
2018-12-20T10:54:55.364Z,1012.23
2018-12-20T10:55:55.331Z,1012.25
2018-12-20T10:56:55.298Z,1012.26
2018-12-20T10:57:55.266Z,1012.24
2018-12-20T10:58:55.233Z,1012.19
2018-12-20T10:59:55.201Z,1012.19
2018-12-20T11:00:55.168Z,1012.22
2018-12-20T11:01:55.135Z,1012.23
2018-12-20T11:02:55.104Z,1012.24
2018-12-20T11:03:55.071Z,1012.21
2018-12-20T11:04:55.040Z,1012.21
2018-12-20T11:05:55.006Z,1012.23
2018-12-20T11:06:54.974Z,1012.17
2018-12-20T11:07:54.941Z,1012.21
2018-12-20T11:08:54.908Z,1012.20
2018-12-20T11:09:54.875Z,1012.16
2018-12-20T11:10:54.845Z,1012.16
2018-12-20T11:11:54.810Z,1012.15
2018-12-20T11:12:54.778Z,1012.12
2018-12-20T11:13:54.746Z,1012.13
2018-12-20T11:14:54.715Z,1012.12
2018-12-20T11:15:54.681Z,1012.10
2018-12-20T11:16:54.650Z,1012.09
2018-12-20T11:17:54.617Z,1012.12
2018-12-20T11:18:54.585Z,1012.12
2018-12-20T11:19:54.550Z,1012.10
2018-12-20T11:20:54.519Z,1012.14
2018-12-20T11:21:54.486Z,1012.11
2018-12-20T11:22:54.453Z,1012.12
2018-12-20T11:23:54.419Z,1012.08
2018-12-20T11:24:54.391Z,1012.08
2018-12-20T11:25:54.356Z,1012.06
2018-12-20T11:26:54.320Z,1012.06
2018-12-20T11:27:54.288Z,1012.03
2018-12-20T11:28:54.257Z,1012.02
2018-12-20T11:29:54.225Z,1011.98
2018-12-20T11:30:54.189Z,1011.95
2018-12-20T11:31:54.158Z,1011.97
2018-12-20T11:32:54.124Z,1011.95
2018-12-20T11:33:54.093Z,1011.93
2018-12-20T11:34:54.069Z,1011.97
2018-12-20T11:35:54.026Z,1011.93
2018-12-20T11:36:53.994Z,1011.91
2018-12-20T11:37:53.961Z,1011.91
2018-12-20T11:38:53.929Z,1011.90
2018-12-20T11:39:59.426Z,1011.91
2018-12-20T11:40:54.755Z,1011.89
2018-12-20T11:41:53.830Z,1011.89
2018-12-20T11:42:53.796Z,1011.93
2018-12-20T11:43:53.763Z,1011.87
2018-12-20T11:44:53.737Z,1011.88
2018-12-20T11:45:53.701Z,1011.89
2018-12-20T11:46:53.667Z,1011.86
2018-12-20T11:47:53.633Z,1011.84
2018-12-20T11:48:53.602Z,1011.86
2018-12-20T11:49:53.568Z,1011.92
2018-12-20T11:50:53.535Z,1011.85
2018-12-20T11:51:53.502Z,1011.87
2018-12-20T11:52:53.473Z,1011.84
2018-12-20T11:53:53.439Z,1011.92
2018-12-20T11:54:54.296Z,1011.86
2018-12-20T11:55:53.373Z,1011.88
2018-12-20T11:56:53.341Z,1011.81
2018-12-20T11:57:53.310Z,1011.87
2018-12-20T11:58:53.274Z,1011.84
2018-12-20T11:59:53.244Z,1011.85
2018-12-20T12:00:53.212Z,1011.81
2018-12-20T12:01:53.179Z,1011.79
2018-12-20T12:02:53.144Z,1011.82
2018-12-20T12:03:57.420Z,1011.81
2018-12-20T12:04:53.080Z,1011.78